• Join FlightAware (Why Join?)
  • Login
  • US Flag 
09:59PM EST


 

Airport Tracker/Info


-or-


 

Live Flight TrackerFlight Track Log ✈ CHH7104 ✈ 29-Mar-2014 ✈ ZYMD / MDG - ZBAA / PEK

Flight Track Log - Related Links

Times and Time Zones

All times are in EDT time to prevent confusion due to time zone crossing. See the CHH7104 flight status page for this flight to view local times or setup timezone preferences in your user account.

Time Position Orientation Groundspeed Altitude Reporting Facility
EDT Latitude Longitude Course Direction KTS MPH feet Rate Location/Type
10:54PM 44.4872 129.4301 250° West  Level Estimated
10:55PM 44.4502 129.2914 250° West  Level Estimated
10:56PM 44.4131 129.1528 249° West  Level Estimated
10:57PM 44.3757 129.0144 249° West  Level Estimated
10:58PM 44.3382 128.8763 249° West  Level Estimated
10:59PM 44.3005 128.7382 249° West  Level Estimated
11:00PM 44.2627 128.6004 249° West  Level Estimated
11:01PM 44.2247 128.4627 249° West  Level Estimated
11:02PM 44.1865 128.3253 249° West  Level Estimated
11:03PM 44.1482 128.1880 249° West  Level Estimated
11:04PM 44.1097 128.0508 249° West  Level Estimated
11:05PM 44.0710 127.9139 249° West  Level Estimated
11:06PM 44.0322 127.7771 248° West  Level Estimated
11:07PM 43.9932 127.6405 248° West  Level Estimated
11:08PM 43.9541 127.5041 248° West  Level Estimated
11:09PM 43.9147 127.3679 248° West  Level Estimated
11:10PM 43.8753 127.2319 248° West  Level Estimated
11:11PM 43.8356 127.0960 248° West  Level Estimated
11:12PM 43.7958 126.9603 248° West  Level Estimated
11:13PM 43.7559 126.8248 248° West  Level Estimated
11:14PM 43.7158 126.6895 248° West  Level Estimated
11:15PM 43.6755 126.5543 248° West  Level Estimated
11:16PM 43.6351 126.4194 248° West  Level Estimated
11:17PM 43.6043 126.3173 247° West  Level Estimated
11:18PM 43.5735 126.2152 247° West  Level Estimated
11:19PM 43.5426 126.1133 247° West  Level Estimated
11:20PM 43.5116 126.0115 247° West  Level Estimated
11:21PM 43.4804 125.9098 247° West  Level Estimated
11:22PM 43.4493 125.8082 247° West  Level Estimated
11:23PM 43.4180 125.7067 247° West  Level Estimated
11:24PM 43.3866 125.6053 247° West  Level Estimated
11:25PM 43.3551 125.5041 247° West  Level Estimated
11:26PM 43.3236 125.4029 247° West  Level Estimated
11:27PM 43.2920 125.3018 247° West  Level Estimated
11:28PM 43.2602 125.2008 247° West  Level Estimated
11:29PM 43.2284 125.1000 247° West  Level Estimated
11:30PM 43.1965 124.9992 247° West  Level Estimated
11:31PM 43.1645 124.8986 246° West  Level Estimated
11:32PM 43.1324 124.7980 246° West  Level Estimated
11:33PM 43.1003 124.6976 246° West  Level Estimated
11:34PM 43.0680 124.5973 246° West  Level Estimated
11:35PM 43.0357 124.4970 246° West  Level Estimated
11:36PM 43.0032 124.3969 246° West  Level Estimated
11:37PM 42.9707 124.2969 246° West  Level Estimated
11:38PM 42.9381 124.1970 246° West  Level Estimated
11:39PM 42.9054 124.0972 246° West  Level Estimated
11:40PM 42.8726 123.9975 246° West  Level Estimated
11:41PM 42.8398 123.8979 246° West  Level Estimated
11:42PM 42.8068 123.7984 246° West  Level Estimated
11:43PM 42.7738 123.6990 246° West  Level Estimated
11:44PM 42.7407 123.5997 246° West  Level Estimated
11:45PM 42.7075 123.5005 246° West  Level Estimated
11:46PM 42.6742 123.4015 245° Southwest  Level Estimated
11:47PM 42.6408 123.3025 245° Southwest  Level Estimated
11:48PM 42.6073 123.2037 245° Southwest  Level Estimated
11:49PM 42.5738 123.1049 245° Southwest  Level Estimated
11:50PM 42.5401 123.0063 245° Southwest  Level Estimated
11:51PM 42.5064 122.9078 245° Southwest  Level Estimated
11:52PM 42.4726 122.8093 245° Southwest  Level Estimated
11:53PM 42.4387 122.7110 245° Southwest  Level Estimated
11:54PM 42.4048 122.6128 245° Southwest  Level Estimated
11:55PM 42.3707 122.5147 245° Southwest  Level Estimated
11:56PM 42.3366 122.4167 245° Southwest  Level Estimated
11:57PM 42.3023 122.3188 245° Southwest  Level Estimated
11:58PM 42.2680 122.2210 245° Southwest  Level Estimated
11:59PM 42.2336 122.1233 245° Southwest  Level Estimated
12:00AM 42.1992 122.0258 245° Southwest  Level Estimated
12:01AM 42.1646 121.9283 244° Southwest  Level Estimated
12:02AM 42.1300 121.8309 244° Southwest  Level Estimated
12:03AM 42.0953 121.7337 244° Southwest  Level Estimated
12:04AM 42.0605 121.6365 244° Southwest  Level Estimated
12:05AM 42.0256 121.5395 244° Southwest  Level Estimated
12:06AM 41.9906 121.4426 244° Southwest  Level Estimated
12:07AM 41.9556 121.3457 244° Southwest  Level Estimated
12:08AM 41.9204 121.2490 244° Southwest  Level Estimated
12:09AM 41.8852 121.1524 244° Southwest  Level Estimated
12:10AM 41.8499 121.0559 244° Southwest  Level Estimated
12:11AM 41.8146 120.9595 244° Southwest  Level Estimated
12:12AM 41.7791 120.8632 244° Southwest  Level Estimated
12:13AM 41.7436 120.7670 244° Southwest  Level Estimated
12:14AM 41.7080 120.6709 244° Southwest  Level Estimated
12:15AM 41.6723 120.5750 244° Southwest  Level Estimated
12:16AM 41.6365 120.4791 243° Southwest  Level Estimated
12:17AM 41.6007 120.3833 243° Southwest  Level Estimated
12:18AM 41.5648 120.2877 243° Southwest  Level Estimated
12:19AM 41.5288 120.1921 243° Southwest  Level Estimated
12:20AM 41.4927 120.0967 243° Southwest  Level Estimated
12:21AM 41.4565 120.0013 243° Southwest  Level Estimated
12:22AM 41.4202 119.9061 243° Southwest  Level Estimated
12:23AM 41.3839 119.8110 243° Southwest  Level Estimated
12:24AM 41.3475 119.7160 243° Southwest  Level Estimated
12:25AM 41.3111 119.6210 243° Southwest  Level Estimated
12:26AM 41.2745 119.5262 243° Southwest  Level Estimated
12:27AM 41.2379 119.4315 243° Southwest  Level Estimated
12:28AM 41.2011 119.3369 243° Southwest  Level Estimated
12:29AM 41.1643 119.2425 243° Southwest  Level Estimated
12:30AM 41.1275 119.1481 243° Southwest  Level Estimated
12:31AM 41.0905 119.0538 243° Southwest  Level Estimated
12:32AM 41.0535 118.9596 242° Southwest  Level Estimated
12:33AM 41.0164 118.8656 242° Southwest  Level Estimated
12:34AM 40.9793 118.7716 242° Southwest  Level Estimated
12:35AM 40.9420 118.6778 242° Southwest  Level Estimated
12:36AM 40.9047 118.5840 242° Southwest  Level Estimated
12:37AM 40.8673 118.4904 242° Southwest  Level Estimated
12:38AM 40.8298 118.3969 242° Southwest  Level Estimated
12:39AM 40.7923 118.3034 242° Southwest  Level Estimated
12:40AM 40.7546 118.2101 242° Southwest  Level Estimated
12:41AM 40.7169 118.1169 242° Southwest  Level Estimated
12:42AM 40.6791 118.0238 242° Southwest  Level Estimated
12:43AM 40.6413 117.9308 242° Southwest  Level Estimated
12:44AM 40.6034 117.8379 242° Southwest  Level Estimated
12:45AM 40.5654 117.7451 242° Southwest  Level Estimated
12:46AM 40.5273 117.6524 242° Southwest  Level Estimated
12:47AM 40.4891 117.5598 242° Southwest  Level Estimated
12:48AM 40.4509 117.4673 242° Southwest  Level Estimated
12:49AM 40.4126 117.3750 241° Southwest  Level Estimated
12:50AM 40.3742 117.2827 241° Southwest  Level Estimated
12:51AM 40.3358 117.1905 241° Southwest  Level Estimated
12:52AM 40.2973 117.0985 241° Southwest  Level Estimated
12:53AM 40.2587 117.0065 241° Southwest  Level Estimated
12:54AM 40.2200 116.9147 241° Southwest  Level Estimated
12:55AM 40.1813 116.8229 241° Southwest  Level Estimated
12:56AM 40.1425 116.7313 241° Southwest  Level Estimated
12:57AM 40.1036 116.6398 241° Southwest  Level Estimated
12:58AM 40.0801 116.5846 241° Southwest  Level Estimated
12:59AM 40.0801 116.5846 North  Level Estimated
01:00AM 40.0801 116.5846 North  Level Estimated
01:01AM 40.0801 116.5846 North  Level Estimated
01:02AM 40.0801 116.5846 North  Level Estimated
01:03AM 40.0801 116.5846 North  Level Estimated
01:04AM 40.0801 116.5846 North  Level Estimated
01:05AM 40.0801 116.5846 North  Level Estimated
01:06AM 40.0801 116.5846 North  Level Estimated